Time;durP1;ratioP1;P1;durP2;ratioP2;P2;SDS_P1;SDS_P2;PMS_P1;PMS_P2;Temp;Humidity;BMP_temperature;BMP_pressure;BME280_temperature;BME280_humidity;BME280_pressure;Samples;Min_cycle;Max_cycle;Signal;HPM_P1;HPM_P2
2022/08/09 00:00:13;;;;;;;3.45;0.90;;;13.10;99.90;;;;;;4977063;28;20029;-74
2022/08/09 00:02:40;;;;;;;5.20;0.80;;;13.30;99.90;;;;;;4977311;28;20037;-74
2022/08/09 00:05:08;;;;;;;2.63;1.00;;;13.40;99.90;;;;;;4975525;28;20027;-74
2022/08/09 00:07:36;;;;;;;4.35;0.73;;;13.50;99.90;;;;;;4959939;28;20034;-75
2022/08/09 00:10:04;;;;;;;2.67;1.10;;;13.50;99.90;;;;;;4975457;28;20498;-76
2022/08/09 00:12:31;;;;;;;2.15;0.70;;;13.60;99.90;;;;;;4976888;28;20076;-78
2022/08/09 00:15:00;;;;;;;3.92;0.65;;;13.50;99.90;;;;;;4975597;28;20038;-73
2022/08/09 00:17:28;;;;;;;3.03;0.68;;;13.40;99.90;;;;;;4959490;28;20514;-77
2022/08/09 00:19:55;;;;;;;2.92;0.80;;;13.40;99.90;;;;;;4977174;28;20138;-75
2022/08/09 00:22:22;;;;;;;2.55;1.08;;;13.50;99.90;;;;;;4975178;28;20076;-75
2022/08/09 00:24:50;;;;;;;2.47;0.70;;;13.20;99.90;;;;;;4976800;28;20494;-75
2022/08/09 00:27:17;;;;;;;2.75;0.70;;;13.10;99.90;;;;;;4975328;28;20022;-76
2022/08/09 00:29:44;;;;;;;1.65;0.88;;;13.10;99.90;;;;;;4977111;28;20027;-77
2022/08/09 00:32:12;;;;;;;5.35;0.90;;;13.00;99.90;;;;;;4975245;28;20026;-77
2022/08/09 00:34:39;;;;;;;2.95;0.80;;;13.20;99.90;;;;;;4959559;28;20090;-77
2022/08/09 00:37:07;;;;;;;3.15;0.65;;;13.50;99.90;;;;;;4976504;28;20031;-76
2022/08/09 00:39:34;;;;;;;4.90;1.00;;;13.80;99.90;;;;;;4975335;28;20408;-75
2022/08/09 00:42:02;;;;;;;3.97;0.70;;;13.90;99.90;;;;;;4974780;28;20030;-76
2022/08/09 00:44:29;;;;;;;2.60;0.70;;;14.20;99.90;;;;;;4976487;28;20030;-76
2022/08/09 00:46:57;;;;;;;5.40;0.93;;;14.50;99.90;;;;;;4976443;28;20019;-77
2022/08/09 00:49:24;;;;;;;4.97;0.90;;;14.70;99.90;;;;;;4974810;28;20055;-77
2022/08/09 00:51:51;;;;;;;4.10;0.80;;;14.40;99.90;;;;;;4976037;28;20054;-76
2022/08/09 00:54:19;;;;;;;1.85;0.40;;;14.60;99.90;;;;;;4976278;28;20034;-76
2022/08/09 00:56:47;;;;;;;3.72;0.93;;;14.80;99.90;;;;;;4974646;28;20057;-76
2022/08/09 00:59:14;;;;;;;6.30;0.93;;;15.10;99.90;;;;;;4959067;28;20446;-76
2022/08/09 01:01:42;;;;;;;3.50;0.52;;;15.10;99.90;;;;;;4976053;28;20467;-75
2022/08/09 01:04:37;;;;;;;3.53;0.60;;;15.20;99.90;;;;;;4974490;28;20097;-75
2022/08/09 01:07:26;;;;;;;4.55;0.90;;;15.20;99.90;;;;;;4974629;28;20022;-76
2022/08/09 01:10:08;;;;;;;3.88;0.50;;;15.30;99.90;;;;;;4974561;28;20033;-75
2022/08/09 01:12:53;;;;;;;3.83;0.65;;;15.20;99.90;;;;;;4974442;28;20104;-75
2022/08/09 01:15:28;;;;;;;3.78;0.70;;;15.20;99.90;;;;;;4976066;28;20386;-76
2022/08/09 01:18:05;;;;;;;5.63;0.90;;;15.00;99.90;;;;;;4975732;28;20102;-75
2022/08/09 01:20:59;;;;;;;3.42;0.70;;;15.60;99.90;;;;;;4974373;28;20118;-76
2022/08/09 01:23:40;;;;;;;3.08;0.73;;;15.60;99.90;;;;;;4959957;28;20043;-74
2022/08/09 01:26:58;;;;;;;4.00;0.70;;;15.40;99.90;;;;;;4974065;28;20490;-76
2022/08/09 01:30:08;;;;;;;2.75;0.60;;;15.00;99.90;;;;;;4932154;28;20069;-76
2022/08/09 01:32:44;;;;;;;5.90;1.20;;;15.30;99.90;;;;;;4900037;29;20057;-76
2022/08/09 01:35:26;;;;;;;3.72;0.70;;;15.30;99.90;;;;;;4966538;28;20089;-77
2022/08/09 01:37:57;;;;;;;2.95;0.70;;;15.20;99.90;;;;;;4975583;28;20428;-76
2022/08/09 01:40:26;;;;;;;2.65;0.70;;;15.30;99.90;;;;;;4975466;28;20026;-75
2022/08/09 01:42:55;;;;;;;2.55;0.50;;;15.60;99.90;;;;;;4973846;28;20030;-76
2022/08/09 01:45:23;;;;;;;4.10;0.70;;;15.40;99.90;;;;;;4974949;28;20039;-76
2022/08/09 01:47:53;;;;;;;3.05;0.80;;;15.20;99.90;;;;;;4973796;28;20022;-75
2022/08/09 01:50:23;;;;;;;1.85;0.50;;;15.30;99.90;;;;;;4975450;28;20154;-75
2022/08/09 01:52:52;;;;;;;5.07;1.08;;;15.00;99.90;;;;;;4975285;28;20084;-76
2022/08/09 01:55:22;;;;;;;3.03;0.80;;;15.10;99.90;;;;;;4975262;28;20038;-76
2022/08/09 01:57:50;;;;;;;5.93;0.90;;;15.30;99.90;;;;;;4975304;28;20030;-75
2022/08/09 02:00:18;;;;;;;2.78;0.95;;;15.50;99.90;;;;;;4975131;28;20458;-76
2022/08/09 02:02:50;;;;;;;4.03;0.52;;;15.60;99.90;;;;;;4973782;28;20035;-76
2022/08/09 02:05:21;;;;;;;2.55;0.70;;;15.70;99.90;;;;;;4973662;28;20029;-77
2022/08/09 02:08:00;;;;;;;2.25;0.68;;;15.80;99.90;;;;;;4973720;28;20030;-76
2022/08/09 02:10:31;;;;;;;3.75;0.70;;;15.80;99.90;;;;;;4974878;28;20019;-76
2022/08/09 02:13:04;;;;;;;1.45;0.40;;;15.60;99.90;;;;;;4973665;28;20034;-76
2022/08/09 02:15:34;;;;;;;4.18;0.75;;;15.60;99.90;;;;;;4973633;28;20075;-76
2022/08/09 02:18:04;;;;;;;2.72;0.70;;;15.80;99.90;;;;;;4975045;28;20070;-76
2022/08/09 02:20:33;;;;;;;4.97;0.60;;;15.90;99.90;;;;;;4973403;28;20046;-77
2022/08/09 02:23:32;;;;;;;0.95;0.40;;;15.90;99.90;;;;;;4974894;28;20033;-76
2022/08/09 02:26:00;;;;;;;2.53;0.40;;;16.00;99.90;;;;;;4971914;28;20110;-76
2022/08/09 02:28:36;;;;;;;2.92;0.70;;;16.00;99.90;;;;;;4973034;28;20117;-76
2022/08/09 02:31:14;;;;;;;3.42;1.00;;;16.00;99.90;;;;;;4974732;28;20089;-76
2022/08/09 02:33:44;;;;;;;5.15;0.93;;;16.30;99.90;;;;;;4974578;28;20058;-76
2022/08/09 02:36:19;;;;;;;3.00;0.83;;;16.20;99.90;;;;;;4974560;28;20065;-76
2022/08/09 02:38:54;;;;;;;1.77;0.30;;;16.40;99.90;;;;;;4974500;28;20043;-76
2022/08/09 02:41:35;;;;;;;3.38;0.60;;;16.50;99.90;;;;;;4973295;28;20030;-76
2022/08/09 02:44:08;;;;;;;5.70;0.80;;;16.70;99.90;;;;;;4972945;28;20023;-75
2022/08/09 02:46:37;;;;;;;4.00;0.93;;;16.80;99.90;;;;;;4974508;28;20070;-76
2022/08/09 02:49:10;;;;;;;3.00;0.40;;;16.90;99.90;;;;;;4973059;28;20506;-76
2022/08/09 02:51:40;;;;;;;4.35;0.75;;;16.70;99.90;;;;;;4974439;28;20019;-76
2022/08/09 02:54:10;;;;;;;3.53;0.70;;;16.60;99.90;;;;;;4973036;28;20031;-75
2022/08/09 02:56:40;;;;;;;2.20;0.40;;;16.70;99.90;;;;;;4974009;28;20075;-74
2022/08/09 02:59:10;;;;;;;3.53;0.60;;;16.50;99.90;;;;;;4973661;28;20502;-75
2022/08/09 03:01:38;;;;;;;3.22;0.63;;;16.50;99.90;;;;;;4972543;28;20034;-75
2022/08/09 03:04:07;;;;;;;3.50;0.55;;;16.80;99.90;;;;;;4974038;28;20077;-73
2022/08/09 03:06:37;;;;;;;3.83;0.50;;;16.70;99.90;;;;;;4972475;28;20034;-76
2022/08/09 03:09:05;;;;;;;3.42;0.50;;;16.70;99.90;;;;;;4956890;28;20054;-75
2022/08/09 03:11:34;;;;;;;4.13;0.60;;;16.90;99.90;;;;;;4972485;28;20089;-74
2022/08/09 03:14:02;;;;;;;3.22;0.45;;;16.70;99.90;;;;;;4957099;28;20116;-73
2022/08/09 03:16:32;;;;;;;2.53;0.38;;;16.40;99.90;;;;;;4972507;28;20034;-73
2022/08/09 03:19:01;;;;;;;5.20;0.68;;;16.70;99.90;;;;;;4973241;28;20027;-74
2022/08/09 03:21:30;;;;;;;3.10;0.60;;;16.50;99.90;;;;;;4972627;28;20034;-75
2022/08/09 03:23:57;;;;;;;2.85;0.50;;;16.60;99.90;;;;;;4974039;28;20031;-75
2022/08/09 03:26:25;;;;;;;3.58;0.65;;;16.70;99.90;;;;;;4972569;28;20027;-75
2022/08/09 03:28:57;;;;;;;2.50;0.43;;;17.00;99.90;;;;;;4973851;28;20018;-74
2022/08/09 03:31:26;;;;;;;1.98;0.43;;;17.10;99.90;;;;;;4972422;28;20081;-74
2022/08/09 03:33:55;;;;;;;2.63;0.40;;;17.20;99.90;;;;;;4972482;28;20043;-74
2022/08/09 03:36:25;;;;;;;4.03;0.70;;;17.00;99.90;;;;;;4973687;28;20065;-74
2022/08/09 03:38:53;;;;;;;2.50;0.30;;;16.70;99.90;;;;;;4973764;28;20033;-75
2022/08/09 03:41:20;;;;;;;3.38;0.40;;;16.70;99.90;;;;;;4973521;28;20027;-76
2022/08/09 03:43:47;;;;;;;3.65;0.60;;;16.60;99.90;;;;;;4972396;28;20023;-76
2022/08/09 03:46:15;;;;;;;5.60;0.60;;;16.20;99.90;;;;;;4974187;28;20134;-75
2022/08/09 03:48:44;;;;;;;3.90;0.60;;;15.80;99.90;;;;;;4975794;28;20119;-75
2022/08/09 03:51:12;;;;;;;2.20;0.63;;;16.10;99.90;;;;;;4976200;28;20027;-75
2022/08/09 03:53:41;;;;;;;1.60;0.30;;;16.30;99.90;;;;;;4977108;28;20027;-76
2022/08/09 03:56:09;;;;;;;2.67;0.60;;;16.20;99.90;;;;;;4977523;28;20019;-76
2022/08/09 03:58:37;;;;;;;2.50;0.40;;;16.00;99.90;;;;;;4976061;28;20023;-76
2022/08/09 04:01:06;;;;;;;1.83;0.50;;;16.20;99.90;;;;;;4960033;28;20035;-76
2022/08/09 04:03:35;;;;;;;4.30;0.50;;;16.30;99.90;;;;;;4977201;28;20030;-74
2022/08/09 04:06:04;;;;;;;4.07;0.90;;;16.70;99.90;;;;;;4960220;28;20066;-75
2022/08/09 04:08:32;;;;;;;4.25;0.50;;;16.70;99.90;;;;;;4960085;28;20031;-76
2022/08/09 04:11:00;;;;;;;5.57;0.90;;;17.00;99.90;;;;;;4975946;28;20026;-75
2022/08/09 04:13:28;;;;;;;2.58;0.50;;;16.70;99.90;;;;;;4959714;28;20031;-75
2022/08/09 04:15:56;;;;;;;1.63;0.50;;;16.70;99.90;;;;;;4959625;28;20039;-75
2022/08/09 04:18:23;;;;;;;4.90;0.70;;;16.60;99.90;;;;;;4977010;28;20445;-76
2022/08/09 04:20:51;;;;;;;2.33;0.73;;;16.30;99.90;;;;;;4975359;28;20109;-76
2022/08/09 04:23:20;;;;;;;3.70;0.90;;;16.20;99.90;;;;;;4975531;28;20117;-75
2022/08/09 04:25:47;;;;;;;3.42;0.65;;;16.30;99.90;;;;;;4977011;28;20464;-75
2022/08/09 04:28:14;;;;;;;2.90;0.63;;;16.40;99.90;;;;;;4975341;28;20551;-75
2022/08/09 04:30:42;;;;;;;3.85;0.70;;;16.20;99.90;;;;;;4976756;28;20022;-75
2022/08/09 04:33:09;;;;;;;3.83;0.80;;;16.10;99.90;;;;;;4976984;28;20089;-75
2022/08/09 04:35:41;;;;;;;3.15;0.52;;;16.10;99.90;;;;;;4977101;28;20049;-75
2022/08/09 04:38:08;;;;;;;3.05;0.68;;;16.20;99.90;;;;;;4959526;28;20058;-74
2022/08/09 04:40:48;;;;;;;3.20;0.30;;;16.00;99.90;;;;;;4975078;28;20099;-74
2022/08/09 04:43:17;;;;;;;3.97;0.60;;;15.80;99.90;;;;;;4975015;28;20094;-75
2022/08/09 04:45:45;;;;;;;4.32;0.75;;;15.60;99.90;;;;;;4975029;28;20084;-75
2022/08/09 04:48:12;;;;;;;2.42;0.60;;;15.70;99.90;;;;;;4975033;28;20030;-74
2022/08/09 04:50:41;;;;;;;2.38;0.50;;;16.00;99.90;;;;;;4976647;28;20023;-75
2022/08/09 04:53:09;;;;;;;2.80;0.52;;;16.00;99.90;;;;;;4974937;28;20122;-74
2022/08/09 04:55:38;;;;;;;4.80;0.50;;;15.90;99.90;;;;;;4975856;28;20038;-74
2022/08/09 04:58:06;;;;;;;1.92;0.52;;;15.90;99.90;;;;;;4957887;28;20030;-74
2022/08/09 05:00:34;;;;;;;3.00;0.63;;;16.00;99.90;;;;;;4974932;28;20487;-74
2022/08/09 05:03:05;;;;;;;2.83;0.70;;;15.90;99.90;;;;;;4976270;28;20023;-73
2022/08/09 05:05:32;;;;;;;3.47;0.40;;;15.90;99.90;;;;;;4976355;28;20414;-74
2022/08/09 05:07:59;;;;;;;2.30;0.73;;;15.80;99.90;;;;;;4974904;28;20439;-73
2022/08/09 05:10:27;;;;;;;2.58;0.43;;;15.70;99.90;;;;;;4976384;28;20399;-74
2022/08/09 05:12:55;;;;;;;2.95;0.60;;;15.50;99.90;;;;;;4974525;28;20026;-74
2022/08/09 05:15:23;;;;;;;2.47;0.60;;;15.40;99.90;;;;;;4958618;28;20035;-74
2022/08/09 05:17:51;;;;;;;2.90;0.50;;;15.30;99.90;;;;;;4975911;28;20025;-75
2022/08/09 05:20:20;;;;;;;4.57;0.70;;;15.10;99.90;;;;;;4974509;28;20031;-75
2022/08/09 05:22:49;;;;;;;3.55;0.95;;;15.00;99.90;;;;;;4958566;28;20458;-75
2022/08/09 05:25:16;;;;;;;3.60;0.60;;;15.10;99.90;;;;;;4974342;28;20023;-74
2022/08/09 05:27:44;;;;;;;1.45;0.50;;;15.10;99.90;;;;;;4975667;28;20057;-74
2022/08/09 05:30:12;;;;;;;3.30;0.80;;;15.10;99.90;;;;;;4975548;28;20019;-73
2022/08/09 05:32:39;;;;;;;2.63;0.60;;;15.10;99.90;;;;;;4974458;28;20137;-73
2022/08/09 05:35:07;;;;;;;3.38;0.50;;;15.00;99.90;;;;;;4975500;28;20038;-77
2022/08/09 05:37:35;;;;;;;3.67;0.68;;;14.90;99.90;;;;;;4974395;28;20054;-74
2022/08/09 05:40:02;;;;;;;4.75;0.60;;;14.60;99.90;;;;;;4974475;28;20059;-74
2022/08/09 05:42:30;;;;;;;1.65;0.60;;;14.50;99.90;;;;;;4975490;28;20519;-74
2022/08/09 05:44:58;;;;;;;4.57;0.77;;;14.40;99.90;;;;;;4973956;28;20058;-75
2022/08/09 05:47:26;;;;;;;2.63;0.60;;;14.40;99.90;;;;;;4973985;28;20030;-75
2022/08/09 05:49:54;;;;;;;4.70;0.70;;;14.50;99.90;;;;;;4975252;28;20383;-74
2022/08/09 05:52:23;;;;;;;4.63;0.95;;;14.50;99.90;;;;;;4974003;28;20022;-75
2022/08/09 05:54:50;;;;;;;3.67;1.00;;;14.50;99.90;;;;;;4974117;28;20026;-74
2022/08/09 05:57:18;;;;;;;5.13;0.70;;;14.60;99.90;;;;;;4973851;28;20033;-75
2022/08/09 05:59:45;;;;;;;5.97;1.08;;;14.50;99.90;;;;;;4973763;28;20129;-74
2022/08/09 06:02:13;;;;;;;3.88;0.55;;;14.50;99.90;;;;;;4973527;28;20406;-75
2022/08/09 06:04:40;;;;;;;2.55;0.57;;;14.50;99.90;;;;;;4973533;28;20543;-74
2022/08/09 06:07:08;;;;;;;5.53;0.77;;;14.60;99.90;;;;;;4973798;28;20387;-74
2022/08/09 06:09:35;;;;;;;3.47;0.40;;;14.40;99.90;;;;;;4972942;28;20022;-74
2022/08/09 06:12:03;;;;;;;1.90;0.65;;;14.20;99.90;;;;;;4973304;28;20026;-73
2022/08/09 06:14:30;;;;;;;2.78;0.82;;;14.20;99.90;;;;;;4974635;28;20054;-74
2022/08/09 06:16:58;;;;;;;2.80;0.63;;;14.20;99.90;;;;;;4974662;28;20077;-72
2022/08/09 06:19:25;;;;;;;3.33;0.80;;;14.10;99.90;;;;;;4974829;28;20031;-72
2022/08/09 06:21:52;;;;;;;2.55;0.70;;;14.00;99.90;;;;;;4974639;28;20056;-74
2022/08/09 06:24:20;;;;;;;2.38;0.63;;;14.00;99.90;;;;;;4974782;28;20075;-73
2022/08/09 06:26:47;;;;;;;2.95;0.93;;;14.00;99.90;;;;;;4973390;28;20026;-74
2022/08/09 06:29:15;;;;;;;3.50;0.73;;;14.00;99.90;;;;;;4974964;28;20067;-73
2022/08/09 06:31:42;;;;;;;6.75;1.45;;;13.90;99.90;;;;;;4973468;28;20460;-74
2022/08/09 06:34:10;;;;;;;5.35;0.98;;;13.90;99.90;;;;;;4973763;28;20117;-73
2022/08/09 06:36:37;;;;;;;4.20;0.77;;;13.90;99.90;;;;;;4973621;28;20031;-74
2022/08/09 06:39:04;;;;;;;4.78;0.77;;;13.80;99.90;;;;;;4974583;28;20026;-74
2022/08/09 06:41:32;;;;;;;3.67;0.75;;;13.80;99.90;;;;;;4974578;28;20023;-72
2022/08/09 06:44:00;;;;;;;3.92;1.17;;;13.80;99.90;;;;;;4973852;28;20162;-75
2022/08/09 06:46:27;;;;;;;1.73;0.55;;;13.70;99.90;;;;;;4941306;28;20047;-74
2022/08/09 06:48:55;;;;;;;3.88;0.82;;;13.70;99.90;;;;;;4973209;28;20027;-74
2022/08/09 06:51:22;;;;;;;3.33;0.77;;;13.70;99.90;;;;;;4974610;28;20029;-74
2022/08/09 06:53:50;;;;;;;4.57;1.13;;;13.70;99.90;;;;;;4973189;28;20102;-74
2022/08/09 06:56:17;;;;;;;2.28;0.70;;;13.70;99.90;;;;;;4973598;28;20031;-74
2022/08/09 06:58:45;;;;;;;2.53;0.60;;;13.70;99.90;;;;;;4973315;28;20027;-72
2022/08/09 07:01:12;;;;;;;2.25;0.60;;;13.70;99.90;;;;;;4974381;28;20379;-74
2022/08/09 07:03:39;;;;;;;1.73;0.50;;;13.50;99.90;;;;;;4974832;28;20026;-77
2022/08/09 07:06:07;;;;;;;5.43;0.60;;;13.40;99.90;;;;;;4976139;28;20031;-77
2022/08/09 07:08:35;;;;;;;1.73;0.35;;;13.30;99.90;;;;;;4974586;28;20061;-77
2022/08/09 07:11:03;;;;;;;3.47;0.60;;;13.20;99.90;;;;;;4976275;28;20332;-76
2022/08/09 07:13:31;;;;;;;2.97;0.60;;;13.00;99.90;;;;;;4975991;28;20081;-77
2022/08/09 07:15:58;;;;;;;4.68;0.70;;;13.00;99.90;;;;;;4974310;28;20042;-76
2022/08/09 07:18:25;;;;;;;2.85;0.68;;;12.90;99.90;;;;;;4975534;28;20114;-77
2022/08/09 07:20:53;;;;;;;5.75;1.35;;;12.90;99.90;;;;;;4976811;28;20133;-77
2022/08/09 07:23:20;;;;;;;4.82;1.15;;;12.80;99.90;;;;;;4978562;28;20467;-77
2022/08/09 07:25:50;;;;;;;3.65;1.10;;;12.80;99.90;;;;;;4978040;28;20027;-77
2022/08/09 07:28:18;;;;;;;2.92;0.85;;;12.90;99.90;;;;;;4978448;28;20027;-77
2022/08/09 07:30:45;;;;;;;1.65;0.75;;;12.90;99.90;;;;;;4976928;28;20082;-76
2022/08/09 07:33:12;;;;;;;7.70;1.83;;;12.80;99.90;;;;;;4976706;28;20483;-76
2022/08/09 07:35:40;;;;;;;4.53;1.17;;;12.80;99.90;;;;;;4976506;28;20030;-75
2022/08/09 07:38:07;;;;;;;3.78;1.15;;;12.70;99.90;;;;;;4977740;28;20027;-77
2022/08/09 07:40:35;;;;;;;4.68;1.10;;;12.70;99.90;;;;;;4977531;28;20077;-77
2022/08/09 07:43:03;;;;;;;3.83;1.40;;;12.70;99.90;;;;;;4977902;28;20023;-77
2022/08/09 07:45:31;;;;;;;4.47;1.23;;;12.60;99.90;;;;;;4982790;28;20039;-78
2022/08/09 07:48:00;;;;;;;2.45;0.90;;;12.60;99.90;;;;;;4982159;28;20023;-78
2022/08/09 07:50:28;;;;;;;3.30;0.95;;;12.60;99.90;;;;;;4987874;28;20070;-76
2022/08/09 07:52:56;;;;;;;4.47;1.20;;;12.50;99.90;;;;;;4985145;28;20030;-77
2022/08/09 07:55:23;;;;;;;1.40;0.82;;;12.60;99.90;;;;;;4989410;28;20037;-78
2022/08/09 07:57:50;;;;;;;2.85;0.88;;;12.50;99.90;;;;;;4987923;28;20042;-77
2022/08/09 08:00:19;;;;;;;3.47;0.80;;;12.50;99.90;;;;;;4988923;28;20054;-78
2022/08/09 08:02:47;;;;;;;11.88;2.38;;;12.40;99.90;;;;;;4989019;28;20026;-78
2022/08/09 08:05:15;;;;;;;5.85;1.58;;;12.40;99.90;;;;;;4989156;28;20515;-77
2022/08/09 08:07:42;;;;;;;36.78;7.80;;;12.40;99.90;;;;;;4989568;28;20053;-77
2022/08/09 08:10:10;;;;;;;4.28;1.40;;;12.40;99.90;;;;;;4984626;28;20154;-77
2022/08/09 08:12:42;;;;;;;1.65;1.00;;;12.30;99.90;;;;;;4979273;28;20031;-76
2022/08/09 08:15:15;;;;;;;2.40;1.20;;;12.20;99.90;;;;;;4979274;28;20038;-77
2022/08/09 08:17:42;;;;;;;4.32;1.70;;;12.20;99.90;;;;;;4979036;28;20027;-76
2022/08/09 08:20:10;;;;;;;3.63;1.88;;;12.10;99.90;;;;;;4978351;28;20023;-76
2022/08/09 08:22:38;;;;;;;3.45;1.60;;;12.10;99.90;;;;;;4977825;28;20125;-77
2022/08/09 08:25:06;;;;;;;2.78;1.40;;;12.10;99.90;;;;;;4977417;28;20019;-74
2022/08/09 08:27:33;;;;;;;2.33;1.48;;;12.10;99.90;;;;;;4976843;28;20039;-78
2022/08/09 08:30:01;;;;;;;2.35;1.50;;;12.00;99.90;;;;;;4981885;28;20015;-79
2022/08/09 08:32:29;;;;;;;5.40;2.08;;;12.10;99.90;;;;;;4989315;28;20035;-77
2022/08/09 08:34:57;;;;;;;2.67;1.17;;;12.20;99.90;;;;;;4980212;28;20057;-77
2022/08/09 08:37:26;;;;;;;2.58;0.88;;;12.20;99.90;;;;;;4978776;28;20031;-77
2022/08/09 08:39:53;;;;;;;2.53;0.85;;;12.20;99.90;;;;;;4977225;28;20089;-77
2022/08/09 08:42:21;;;;;;;3.97;2.15;;;12.20;99.90;;;;;;4976268;28;20098;-76
2022/08/09 08:44:52;;;;;;;3.85;1.70;;;12.20;99.90;;;;;;4975644;28;20054;-76
2022/08/09 08:47:20;;;;;;;4.45;2.03;;;12.20;99.90;;;;;;4977782;28;20046;-76
2022/08/09 08:49:49;;;;;;;2.50;1.30;;;12.10;99.90;;;;;;4976536;28;20108;-76
2022/08/09 08:52:18;;;;;;;1.67;0.90;;;12.10;99.90;;;;;;4981122;28;20031;-76
2022/08/09 08:54:45;;;;;;;3.70;1.20;;;12.10;99.90;;;;;;4976030;28;20503;-75
2022/08/09 08:57:13;;;;;;;4.28;1.88;;;12.10;99.90;;;;;;4976133;28;20023;-76
2022/08/09 08:59:40;;;;;;;3.58;2.20;;;12.10;99.90;;;;;;4976670;28;20031;-76
2022/08/09 09:02:17;;;;;;;3.47;1.88;;;12.20;99.90;;;;;;4976289;28;20053;-77
2022/08/09 09:04:46;;;;;;;3.10;1.70;;;12.20;99.90;;;;;;4975420;28;20034;-77
2022/08/09 09:07:14;;;;;;;3.78;1.40;;;12.30;99.90;;;;;;4976437;28;20015;-76
2022/08/09 09:09:47;;;;;;;3.90;1.60;;;12.30;99.90;;;;;;4976450;28;20030;-76
2022/08/09 09:12:20;;;;;;;4.32;1.38;;;12.20;99.90;;;;;;4976522;28;20031;-76
2022/08/09 09:14:48;;;;;;;2.97;1.02;;;12.20;99.90;;;;;;4974908;28;20085;-76
2022/08/09 09:17:16;;;;;;;2.63;1.02;;;12.10;99.90;;;;;;4976274;28;20035;-75
2022/08/09 09:19:44;;;;;;;3.42;1.00;;;12.00;99.90;;;;;;4976661;28;20431;-74
2022/08/09 09:22:15;;;;;;;3.03;1.40;;;12.00;99.90;;;;;;4974551;28;20058;-75
2022/08/09 09:24:50;;;;;;;3.10;1.20;;;11.90;99.90;;;;;;4975725;28;20022;-74
2022/08/09 09:27:25;;;;;;;3.42;1.27;;;11.90;99.90;;;;;;4974352;28;20069;-75
2022/08/09 09:29:54;;;;;;;2.35;1.50;;;11.90;99.90;;;;;;4974179;28;20065;-75
2022/08/09 09:32:21;;;;;;;4.13;1.80;;;11.90;99.90;;;;;;4974583;28;20066;-75
2022/08/09 09:35:10;;;;;;;2.75;1.23;;;11.80;99.90;;;;;;4975647;28;20026;-75
2022/08/09 09:37:40;;;;;;;3.92;1.05;;;11.80;99.90;;;;;;4958516;28;20038;-75
2022/08/09 09:40:09;;;;;;;1.65;0.95;;;11.80;99.90;;;;;;4974345;28;20037;-75
2022/08/09 09:42:37;;;;;;;2.67;0.80;;;11.80;99.90;;;;;;4975166;28;20045;-77
2022/08/09 09:45:07;;;;;;;8.50;7.43;;;11.80;99.90;;;;;;4975407;28;20398;-76
2022/08/09 09:47:35;;;;;;;1.73;0.90;;;11.80;99.90;;;;;;4976196;28;20019;-75
2022/08/09 09:50:03;;;;;;;4.28;1.10;;;11.80;99.90;;;;;;4975946;28;20019;-75
2022/08/09 09:52:31;;;;;;;4.40;1.02;;;11.90;99.90;;;;;;4975472;28;20046;-75
2022/08/09 09:55:10;;;;;;;2.22;0.80;;;11.80;99.90;;;;;;4975384;28;20102;-75
2022/08/09 09:57:39;;;;;;;1.77;0.98;;;11.90;99.90;;;;;;4975263;28;20391;-76
2022/08/09 10:00:23;;;;;;;2.35;0.90;;;11.90;99.90;;;;;;4974190;28;20479;-76
2022/08/09 10:02:50;;;;;;;2.80;1.00;;;11.80;99.90;;;;;;4974470;28;20026;-76
2022/08/09 10:05:17;;;;;;;2.25;0.90;;;11.80;99.90;;;;;;4975633;28;20030;-74
2022/08/09 10:07:45;;;;;;;1.70;0.60;;;11.80;99.90;;;;;;4976061;28;20382;-75
2022/08/09 10:10:17;;;;;;;1.08;0.60;;;11.70;99.90;;;;;;4974647;28;20027;-76
2022/08/09 10:12:52;;;;;;;3.13;0.68;;;11.60;99.90;;;;;;4974517;28;20519;-76
2022/08/09 10:15:19;;;;;;;1.77;0.60;;;11.60;99.90;;;;;;4975454;28;20055;-76
2022/08/09 10:17:51;;;;;;;2.05;0.80;;;11.50;99.90;;;;;;4975373;28;20018;-75
2022/08/09 10:20:25;;;;;;;2.10;0.90;;;11.50;99.90;;;;;;4973770;28;20478;-76
2022/08/09 10:22:58;;;;;;;2.00;0.68;;;11.50;99.90;;;;;;4973863;28;20031;-76
2022/08/09 10:25:26;;;;;;;1.65;0.93;;;11.50;99.90;;;;;;4973634;28;20030;-76
2022/08/09 10:27:54;;;;;;;2.85;0.88;;;11.50;99.90;;;;;;4975154;28;20021;-75
2022/08/09 10:30:22;;;;;;;1.83;0.50;;;11.50;99.90;;;;;;4973836;28;20093;-76
2022/08/09 10:32:50;;;;;;;1.50;0.65;;;11.40;99.90;;;;;;4973873;28;20475;-76
2022/08/09 10:35:18;;;;;;;1.67;0.60;;;11.40;99.90;;;;;;4975139;28;20023;-76
2022/08/09 10:37:46;;;;;;;4.03;0.50;;;11.40;99.90;;;;;;4974709;28;20090;-76
2022/08/09 10:40:14;;;;;;;1.33;0.65;;;11.30;99.90;;;;;;4973799;28;20027;-76
2022/08/09 10:42:41;;;;;;;3.40;0.77;;;11.30;99.90;;;;;;4973266;28;20519;-76
2022/08/09 10:45:12;;;;;;;1.42;0.60;;;11.30;99.90;;;;;;4974668;28;20130;-76
2022/08/09 10:47:48;;;;;;;1.90;0.60;;;11.20;99.90;;;;;;4974838;28;20468;-77
2022/08/09 10:53:34;;;;;;;1.73;0.60;;;11.10;99.90;;;;;;4974831;28;20085;-76
2022/08/09 10:56:24;;;;;;;2.42;0.50;;;11.10;99.90;;;;;;4978228;28;20034;-76
2022/08/09 10:58:52;;;;;;;0.77;0.45;;;11.10;99.90;;;;;;4979254;28;20027;-76
2022/08/09 11:01:32;;;;;;;2.70;0.70;;;11.10;99.90;;;;;;4978423;28;20027;-74
2022/08/09 11:04:22;;;;;;;1.05;0.47;;;11.10;99.90;;;;;;4977517;28;20073;-76
2022/08/09 11:07:09;;;;;;;1.55;0.50;;;11.00;99.90;;;;;;4978733;28;20023;-75
2022/08/09 11:09:46;;;;;;;1.73;0.50;;;11.00;99.90;;;;;;4978193;28;20050;-75
2022/08/09 11:12:23;;;;;;;;;;;11.00;99.90;;;;;;4979242;28;20391;-75
2022/08/09 11:14:56;;;;;;;1.45;0.45;;;11.00;99.90;;;;;;4978471;28;19906;-76
2022/08/09 11:17:26;;;;;;;2.08;0.50;;;10.90;99.90;;;;;;4977099;28;20027;-76
2022/08/09 11:19:57;;;;;;;4.55;0.60;;;10.90;99.90;;;;;;4978250;28;20034;-76
2022/08/09 11:22:46;;;;;;;0.75;0.40;;;10.90;99.90;;;;;;4976986;28;20544;-76
2022/08/09 11:25:21;;;;;;;1.45;0.60;;;10.80;99.90;;;;;;4977354;28;20118;-75
2022/08/09 11:27:51;;;;;;;0.93;0.50;;;10.80;99.90;;;;;;4977045;28;20023;-77
2022/08/09 11:30:28;;;;;;;2.83;0.70;;;10.80;99.90;;;;;;4976995;28;20025;-75
2022/08/09 11:33:05;;;;;;;3.40;0.70;;;10.90;99.90;;;;;;4978394;28;20027;-76
2022/08/09 11:35:56;;;;;;;3.22;0.73;;;10.90;99.90;;;;;;4978872;28;20034;-75
2022/08/09 11:38:35;;;;;;;2.28;0.68;;;10.90;99.90;;;;;;4966254;28;20057;-75
2022/08/09 11:41:29;;;;;;;2.15;0.82;;;10.90;99.90;;;;;;4977331;28;20041;-78
2022/08/09 11:43:57;;;;;;;3.97;1.23;;;10.80;99.90;;;;;;4978371;28;20027;-78
2022/08/09 11:46:26;;;;;;;2.95;0.60;;;10.80;99.90;;;;;;4976386;28;20051;-77
2022/08/09 11:48:56;;;;;;;2.40;0.60;;;10.80;99.90;;;;;;4978534;28;20069;-76
2022/08/09 11:51:26;;;;;;;2.53;0.70;;;10.70;99.90;;;;;;4978505;28;20030;-77
2022/08/09 11:54:17;;;;;;;2.05;0.70;;;10.80;99.90;;;;;;4976589;28;20026;-77
2022/08/09 11:56:45;;;;;;;2.33;0.70;;;10.80;99.90;;;;;;4976928;28;20049;-76
2022/08/09 11:59:26;;;;;;;2.17;0.70;;;10.80;99.90;;;;;;4978169;28;20031;-77
2022/08/09 12:01:54;;;;;;;2.50;0.80;;;10.80;99.90;;;;;;4960723;28;20551;-76
2022/08/09 12:04:25;;;;;;;2.97;0.80;;;10.80;99.90;;;;;;4976586;28;20034;-76
2022/08/09 12:06:56;;;;;;;4.00;0.73;;;10.80;99.90;;;;;;4977087;28;20046;-76
2022/08/09 12:09:26;;;;;;;;;;;10.80;99.90;;;;;;4976507;28;20480;-75
2022/08/09 12:12:04;;;;;;;5.22;1.38;;;10.80;99.90;;;;;;4977595;28;19906;-76
2022/08/09 12:14:36;;;;;;;4.05;0.95;;;10.80;99.90;;;;;;4977464;28;20042;-76
2022/08/09 12:17:07;;;;;;;6.65;1.33;;;10.90;99.90;;;;;;4977402;28;20019;-77
2022/08/09 12:19:34;;;;;;;2.67;1.00;;;10.80;99.90;;;;;;4976224;28;20030;-76
2022/08/09 12:22:06;;;;;;;3.22;1.00;;;10.80;99.90;;;;;;4976017;28;20479;-77
2022/08/09 12:24:34;;;;;;;2.78;1.15;;;10.90;99.90;;;;;;4977218;28;20019;-76
2022/08/09 12:27:03;;;;;;;4.07;1.00;;;10.80;99.90;;;;;;4977269;28;20027;-77
2022/08/09 12:29:31;;;;;;;4.80;1.33;;;10.90;99.90;;;;;;4975866;28;20031;-77
2022/08/09 12:32:04;;;;;;;4.05;1.20;;;10.80;99.90;;;;;;4975712;28;20027;-77
2022/08/09 12:34:37;;;;;;;2.13;1.00;;;10.80;99.90;;;;;;4975935;28;20157;-77
2022/08/09 12:37:05;;;;;;;3.08;1.35;;;10.70;99.90;;;;;;4977562;28;20478;-77
2022/08/09 12:39:33;;;;;;;2.70;1.15;;;10.70;99.90;;;;;;4975781;28;20034;-75
2022/08/09 12:42:17;;;;;;;2.05;1.25;;;10.70;99.90;;;;;;4975637;28;20022;-76
2022/08/09 12:44:44;;;;;;;1.40;1.00;;;10.60;99.90;;;;;;4976861;28;20114;-76
2022/08/09 12:47:12;;;;;;;4.30;1.30;;;10.70;99.90;;;;;;4975550;28;20019;-77
2022/08/09 12:49:39;;;;;;;2.92;1.27;;;10.60;99.90;;;;;;4976954;28;20122;-77
2022/08/09 12:52:09;;;;;;;4.38;1.58;;;10.60;99.90;;;;;;4977034;28;20046;-75
2022/08/09 12:54:56;;;;;;;2.20;0.90;;;10.60;99.90;;;;;;4975740;28;20030;-76
2022/08/09 12:57:37;;;;;;;3.25;1.25;;;10.60;99.90;;;;;;4975471;28;20030;-75
2022/08/09 13:00:19;;;;;;;4.93;1.20;;;10.60;99.90;;;;;;4976523;28;20483;-76
2022/08/09 13:02:57;;;;;;;4.10;1.77;;;10.60;99.90;;;;;;4977017;28;20102;-76
2022/08/09 13:05:27;;;;;;;2.58;1.40;;;10.50;99.90;;;;;;4975245;28;20491;-77
2022/08/09 13:08:21;;;;;;;6.93;1.50;;;10.50;99.90;;;;;;4975156;28;20117;-75